Terminal Aerodrome Forecast
Issued by NWS

Home | Current Version | Previous Version | Text Only | Print | Product List | Glossary On
Versions: 1 2 3 4 5 6 7 8 9 10 11 12 13 14
000
FTUS42 KTBW 211730
TAFPIE
TAF
KPIE 211730Z 2118/2218 12012G16KT P6SM SCT040 SCT250
     FM212100 03011KT P6SM VCSH SCT040 SCT250
     FM220200 10012KT P6SM SCT020 BKN100
     FM220600 12012KT P6SM BKN015
     FM221500 19009KT P6SM SCT030 BKN050=

USA.gov is the U.S. government's official web portal to all federal, state and local government web resources and services.